sensor_id;sensor_type;location;lat;lon;timestamp;P1;durP1;ratioP1;P2;durP2;ratioP2
49556;SDS011;35462;45.048;7.666;2023-02-15T00:09:33;71.78;;;40.50;;
49556;SDS011;35462;45.048;7.666;2023-02-15T00:24:49;64.47;;;39.00;;
49556;SDS011;35462;45.048;7.666;2023-02-15T00:55:57;60.60;;;36.88;;
49556;SDS011;35462;45.048;7.666;2023-02-15T01:27:33;55.70;;;34.83;;
49556;SDS011;35462;45.048;7.666;2023-02-15T01:42:58;57.50;;;36.42;;
49556;SDS011;35462;45.048;7.666;2023-02-15T02:30:40;57.58;;;34.22;;
49556;SDS011;35462;45.048;7.666;2023-02-15T02:46:22;58.63;;;32.30;;
49556;SDS011;35462;45.048;7.666;2023-02-15T03:17:31;53.35;;;32.55;;
49556;SDS011;35462;45.048;7.666;2023-02-15T03:32:55;47.60;;;29.63;;
49556;SDS011;35462;45.048;7.666;2023-02-15T03:48:28;58.35;;;34.17;;
49556;SDS011;35462;45.048;7.666;2023-02-15T04:19:34;61.53;;;33.60;;
49556;SDS011;35462;45.048;7.666;2023-02-15T04:35:06;56.95;;;33.42;;
49556;SDS011;35462;45.048;7.666;2023-02-15T05:06:31;53.85;;;31.70;;
49556;SDS011;35462;45.048;7.666;2023-02-15T05:37:49;55.13;;;33.92;;
49556;SDS011;35462;45.048;7.666;2023-02-15T05:53:21;65.07;;;37.25;;
49556;SDS011;35462;45.048;7.666;2023-02-15T06:08:37;55.72;;;31.88;;
49556;SDS011;35462;45.048;7.666;2023-02-15T06:23:53;51.88;;;30.35;;
49556;SDS011;35462;45.048;7.666;2023-02-15T06:39:10;56.00;;;30.92;;
49556;SDS011;35462;45.048;7.666;2023-02-15T06:54:26;49.72;;;30.50;;
49556;SDS011;35462;45.048;7.666;2023-02-15T07:09:47;47.25;;;29.05;;
49556;SDS011;35462;45.048;7.666;2023-02-15T07:25:03;45.22;;;26.58;;
49556;SDS011;35462;45.048;7.666;2023-02-15T07:40:19;53.58;;;29.17;;
49556;SDS011;35462;45.048;7.666;2023-02-15T07:55:38;53.92;;;31.02;;
49556;SDS011;35462;45.048;7.666;2023-02-15T08:10:57;63.33;;;33.88;;
49556;SDS011;35462;45.048;7.666;2023-02-15T08:26:29;55.40;;;35.33;;
49556;SDS011;35462;45.048;7.666;2023-02-15T08:41:46;60.05;;;36.65;;
49556;SDS011;35462;45.048;7.666;2023-02-15T08:57:10;51.38;;;32.58;;
49556;SDS011;35462;45.048;7.666;2023-02-15T09:12:26;62.40;;;34.80;;
49556;SDS011;35462;45.048;7.666;2023-02-15T09:27:42;57.22;;;34.10;;
49556;SDS011;35462;45.048;7.666;2023-02-15T09:43:02;54.83;;;33.67;;
49556;SDS011;35462;45.048;7.666;2023-02-15T10:45:29;61.00;;;36.35;;
49556;SDS011;35462;45.048;7.666;2023-02-15T11:16:31;53.17;;;33.58;;
49556;SDS011;35462;45.048;7.666;2023-02-15T11:31:54;51.10;;;29.27;;
49556;SDS011;35462;45.048;7.666;2023-02-15T11:47:17;49.88;;;29.40;;
49556;SDS011;35462;45.048;7.666;2023-02-15T12:02:33;49.35;;;28.17;;
49556;SDS011;35462;45.048;7.666;2023-02-15T12:17:53;45.70;;;25.27;;
49556;SDS011;35462;45.048;7.666;2023-02-15T12:48:45;43.33;;;28.27;;
49556;SDS011;35462;45.048;7.666;2023-02-15T13:04:03;46.00;;;27.23;;
49556;SDS011;35462;45.048;7.666;2023-02-15T13:34:44;34.90;;;21.60;;
49556;SDS011;35462;45.048;7.666;2023-02-15T14:05:39;34.15;;;19.98;;
49556;SDS011;35462;45.048;7.666;2023-02-15T14:36:50;28.95;;;16.83;;
49556;SDS011;35462;45.048;7.666;2023-02-15T14:52:08;29.95;;;16.60;;
49556;SDS011;35462;45.048;7.666;2023-02-15T15:07:27;26.23;;;15.47;;
49556;SDS011;35462;45.048;7.666;2023-02-15T15:54:20;25.02;;;13.23;;
49556;SDS011;35462;45.048;7.666;2023-02-15T16:09:38;22.35;;;13.88;;
49556;SDS011;35462;45.048;7.666;2023-02-15T16:24:58;28.02;;;15.65;;
49556;SDS011;35462;45.048;7.666;2023-02-15T16:56:09;29.40;;;15.43;;
49556;SDS011;35462;45.048;7.666;2023-02-15T17:11:40;27.40;;;15.63;;
49556;SDS011;35462;45.048;7.666;2023-02-15T17:27:12;39.00;;;19.70;;
49556;SDS011;35462;45.048;7.666;2023-02-15T17:42:40;34.67;;;19.85;;
49556;SDS011;35462;45.048;7.666;2023-02-15T17:58:08;43.65;;;19.63;;
49556;SDS011;35462;45.048;7.666;2023-02-15T18:13:26;33.20;;;19.13;;
49556;SDS011;35462;45.048;7.666;2023-02-15T18:44:21;47.70;;;22.50;;
49556;SDS011;35462;45.048;7.666;2023-02-15T18:59:36;46.45;;;25.83;;
49556;SDS011;35462;45.048;7.666;2023-02-15T19:14:52;45.08;;;23.02;;
49556;SDS011;35462;45.048;7.666;2023-02-15T19:30:14;41.97;;;21.70;;
49556;SDS011;35462;45.048;7.666;2023-02-15T19:45:33;41.75;;;24.42;;
49556;SDS011;35462;45.048;7.666;2023-02-15T20:00:49;55.72;;;25.25;;
49556;SDS011;35462;45.048;7.666;2023-02-15T20:16:06;35.67;;;22.27;;
49556;SDS011;35462;45.048;7.666;2023-02-15T20:31:23;41.30;;;25.35;;
49556;SDS011;35462;45.048;7.666;2023-02-15T20:46:40;39.72;;;24.70;;
49556;SDS011;35462;45.048;7.666;2023-02-15T21:01:57;43.50;;;25.15;;
49556;SDS011;35462;45.048;7.666;2023-02-15T21:17:16;39.67;;;24.15;;
49556;SDS011;35462;45.048;7.666;2023-02-15T21:32:32;44.55;;;24.27;;
49556;SDS011;35462;45.048;7.666;2023-02-15T21:47:49;44.95;;;24.50;;
49556;SDS011;35462;45.048;7.666;2023-02-15T22:03:05;51.45;;;26.20;;
49556;SDS011;35462;45.048;7.666;2023-02-15T22:18:23;38.55;;;22.73;;
49556;SDS011;35462;45.048;7.666;2023-02-15T22:33:40;42.37;;;25.43;;
49556;SDS011;35462;45.048;7.666;2023-02-15T22:48:56;38.70;;;25.05;;
49556;SDS011;35462;45.048;7.666;2023-02-15T23:04:14;37.35;;;22.02;;
49556;SDS011;35462;45.048;7.666;2023-02-15T23:19:33;36.00;;;20.00;;
49556;SDS011;35462;45.048;7.666;2023-02-15T23:34:49;31.02;;;19.10;;
49556;SDS011;35462;45.048;7.666;2023-02-15T23:50:09;33.65;;;19.58;;
